sensor_id;sensor_type;location;lat;lon;timestamp;P1;durP1;ratioP1;P2;durP2;ratioP2
68188;SDS011;66299;47.514;19.218;2023-04-03T00:00:01;12.38;;;6.60;;
68188;SDS011;66299;47.514;19.218;2023-04-03T00:02:32;11.85;;;6.45;;
68188;SDS011;66299;47.514;19.218;2023-04-03T00:05:01;12.10;;;6.57;;
68188;SDS011;66299;47.514;19.218;2023-04-03T00:07:31;12.27;;;6.82;;
68188;SDS011;66299;47.514;19.218;2023-04-03T00:10:01;12.05;;;6.70;;
68188;SDS011;66299;47.514;19.218;2023-04-03T00:12:30;12.30;;;6.93;;
68188;SDS011;66299;47.514;19.218;2023-04-03T00:15:01;12.65;;;7.10;;
68188;SDS011;66299;47.514;19.218;2023-04-03T00:17:33;12.10;;;7.00;;
68188;SDS011;66299;47.514;19.218;2023-04-03T00:20:01;11.95;;;6.22;;
68188;SDS011;66299;47.514;19.218;2023-04-03T00:22:32;12.75;;;7.10;;
68188;SDS011;66299;47.514;19.218;2023-04-03T00:25:05;13.13;;;7.50;;
68188;SDS011;66299;47.514;19.218;2023-04-03T00:27:35;13.25;;;7.20;;
68188;SDS011;66299;47.514;19.218;2023-04-03T00:30:05;12.75;;;6.60;;
68188;SDS011;66299;47.514;19.218;2023-04-03T00:32:35;13.35;;;7.35;;
68188;SDS011;66299;47.514;19.218;2023-04-03T00:35:04;12.88;;;6.85;;
68188;SDS011;66299;47.514;19.218;2023-04-03T00:37:35;12.52;;;7.20;;
68188;SDS011;66299;47.514;19.218;2023-04-03T00:40:05;14.05;;;7.30;;
68188;SDS011;66299;47.514;19.218;2023-04-03T00:42:35;16.17;;;8.52;;
68188;SDS011;66299;47.514;19.218;2023-04-03T00:47:53;14.75;;;8.30;;
68188;SDS011;66299;47.514;19.218;2023-04-03T00:50:22;14.30;;;8.07;;
68188;SDS011;66299;47.514;19.218;2023-04-03T00:52:51;15.80;;;8.40;;
68188;SDS011;66299;47.514;19.218;2023-04-03T00:55:21;15.30;;;8.68;;
68188;SDS011;66299;47.514;19.218;2023-04-03T00:57:50;14.02;;;7.97;;
68188;SDS011;66299;47.514;19.218;2023-04-03T01:00:21;14.95;;;8.45;;
68188;SDS011;66299;47.514;19.218;2023-04-03T01:02:51;14.88;;;8.88;;
68188;SDS011;66299;47.514;19.218;2023-04-03T01:05:20;14.90;;;8.63;;
68188;SDS011;66299;47.514;19.218;2023-04-03T01:07:52;16.45;;;9.90;;
68188;SDS011;66299;47.514;19.218;2023-04-03T01:10:24;16.08;;;9.65;;
68188;SDS011;66299;47.514;19.218;2023-04-03T01:12:52;16.08;;;9.45;;
68188;SDS011;66299;47.514;19.218;2023-04-03T01:15:21;17.98;;;10.25;;
68188;SDS011;66299;47.514;19.218;2023-04-03T01:17:52;15.77;;;9.68;;
68188;SDS011;66299;47.514;19.218;2023-04-03T01:26:23;16.90;;;9.65;;
68188;SDS011;66299;47.514;19.218;2023-04-03T01:28:53;18.15;;;9.95;;
68188;SDS011;66299;47.514;19.218;2023-04-03T01:31:25;16.25;;;9.55;;
68188;SDS011;66299;47.514;19.218;2023-04-03T01:34:01;16.05;;;9.80;;
68188;SDS011;66299;47.514;19.218;2023-04-03T01:36:30;16.23;;;9.55;;
68188;SDS011;66299;47.514;19.218;2023-04-03T01:39:02;15.50;;;9.65;;
68188;SDS011;66299;47.514;19.218;2023-04-03T01:41:32;16.52;;;9.80;;
68188;SDS011;66299;47.514;19.218;2023-04-03T01:44:01;17.15;;;9.48;;
68188;SDS011;66299;47.514;19.218;2023-04-03T01:46:30;16.40;;;9.68;;
68188;SDS011;66299;47.514;19.218;2023-04-03T01:49:01;16.05;;;9.30;;
68188;SDS011;66299;47.514;19.218;2023-04-03T01:51:29;16.00;;;9.32;;
68188;SDS011;66299;47.514;19.218;2023-04-03T01:53:59;17.02;;;9.85;;
68188;SDS011;66299;47.514;19.218;2023-04-03T01:56:28;15.68;;;9.43;;
68188;SDS011;66299;47.514;19.218;2023-04-03T01:58:57;15.38;;;9.48;;
68188;SDS011;66299;47.514;19.218;2023-04-03T02:01:25;15.75;;;9.30;;
68188;SDS011;66299;47.514;19.218;2023-04-03T02:03:55;15.93;;;9.35;;
68188;SDS011;66299;47.514;19.218;2023-04-03T02:06:25;16.48;;;9.32;;
68188;SDS011;66299;47.514;19.218;2023-04-03T02:08:53;14.75;;;9.25;;
68188;SDS011;66299;47.514;19.218;2023-04-03T02:11:22;15.57;;;9.25;;
68188;SDS011;66299;47.514;19.218;2023-04-03T02:13:51;15.98;;;9.13;;
68188;SDS011;66299;47.514;19.218;2023-04-03T02:16:19;14.20;;;8.38;;
68188;SDS011;66299;47.514;19.218;2023-04-03T02:18:49;14.48;;;8.57;;
68188;SDS011;66299;47.514;19.218;2023-04-03T02:21:18;14.45;;;8.35;;
68188;SDS011;66299;47.514;19.218;2023-04-03T02:23:48;13.93;;;8.15;;
68188;SDS011;66299;47.514;19.218;2023-04-03T02:26:17;13.50;;;7.55;;
68188;SDS011;66299;47.514;19.218;2023-04-03T02:28:48;14.52;;;8.07;;
68188;SDS011;66299;47.514;19.218;2023-04-03T02:31:17;14.20;;;7.75;;
68188;SDS011;66299;47.514;19.218;2023-04-03T02:33:47;14.07;;;7.70;;
68188;SDS011;66299;47.514;19.218;2023-04-03T02:36:16;13.45;;;7.72;;
68188;SDS011;66299;47.514;19.218;2023-04-03T02:38:44;13.63;;;7.40;;
68188;SDS011;66299;47.514;19.218;2023-04-03T02:41:14;12.85;;;7.10;;
68188;SDS011;66299;47.514;19.218;2023-04-03T02:43:43;13.23;;;7.47;;
68188;SDS011;66299;47.514;19.218;2023-04-03T02:46:11;14.85;;;7.38;;
68188;SDS011;66299;47.514;19.218;2023-04-03T02:48:41;13.90;;;7.50;;
68188;SDS011;66299;47.514;19.218;2023-04-03T02:51:10;13.27;;;7.18;;
68188;SDS011;66299;47.514;19.218;2023-04-03T02:53:39;13.05;;;7.38;;
68188;SDS011;66299;47.514;19.218;2023-04-03T02:56:07;12.90;;;7.57;;
68188;SDS011;66299;47.514;19.218;2023-04-03T02:58:37;12.88;;;7.45;;
68188;SDS011;66299;47.514;19.218;2023-04-03T03:01:06;13.90;;;7.95;;
68188;SDS011;66299;47.514;19.218;2023-04-03T03:03:34;13.18;;;7.28;;
68188;SDS011;66299;47.514;19.218;2023-04-03T03:06:07;12.90;;;6.97;;
68188;SDS011;66299;47.514;19.218;2023-04-03T03:08:37;12.60;;;6.97;;
68188;SDS011;66299;47.514;19.218;2023-04-03T03:11:06;12.13;;;6.50;;
68188;SDS011;66299;47.514;19.218;2023-04-03T03:13:36;13.43;;;7.00;;
68188;SDS011;66299;47.514;19.218;2023-04-03T03:16:05;12.80;;;7.20;;
68188;SDS011;66299;47.514;19.218;2023-04-03T03:18:34;12.77;;;6.80;;
68188;SDS011;66299;47.514;19.218;2023-04-03T03:21:04;12.43;;;6.82;;
68188;SDS011;66299;47.514;19.218;2023-04-03T03:23:33;13.25;;;7.00;;
68188;SDS011;66299;47.514;19.218;2023-04-03T03:26:03;13.23;;;7.30;;
68188;SDS011;66299;47.514;19.218;2023-04-03T03:28:33;13.30;;;7.20;;
68188;SDS011;66299;47.514;19.218;2023-04-03T03:31:11;12.35;;;7.00;;
68188;SDS011;66299;47.514;19.218;2023-04-03T03:33:41;12.07;;;6.55;;
68188;SDS011;66299;47.514;19.218;2023-04-03T03:36:10;12.90;;;6.80;;
68188;SDS011;66299;47.514;19.218;2023-04-03T03:38:40;12.60;;;6.40;;
68188;SDS011;66299;47.514;19.218;2023-04-03T03:41:08;11.95;;;6.57;;
68188;SDS011;66299;47.514;19.218;2023-04-03T03:43:39;12.25;;;6.72;;
68188;SDS011;66299;47.514;19.218;2023-04-03T03:46:09;12.63;;;6.78;;
68188;SDS011;66299;47.514;19.218;2023-04-03T03:48:37;12.52;;;6.45;;
68188;SDS011;66299;47.514;19.218;2023-04-03T03:51:06;12.15;;;6.55;;
68188;SDS011;66299;47.514;19.218;2023-04-03T03:53:35;12.20;;;6.63;;
68188;SDS011;66299;47.514;19.218;2023-04-03T03:56:03;13.18;;;6.82;;
68188;SDS011;66299;47.514;19.218;2023-04-03T03:58:33;12.95;;;6.70;;
68188;SDS011;66299;47.514;19.218;2023-04-03T04:01:01;12.40;;;6.65;;
68188;SDS011;66299;47.514;19.218;2023-04-03T04:03:32;12.52;;;6.93;;
68188;SDS011;66299;47.514;19.218;2023-04-03T04:08:32;13.10;;;7.32;;
68188;SDS011;66299;47.514;19.218;2023-04-03T04:11:00;12.77;;;6.78;;
68188;SDS011;66299;47.514;19.218;2023-04-03T04:13:30;12.55;;;7.15;;
68188;SDS011;66299;47.514;19.218;2023-04-03T04:15:58;14.65;;;7.53;;
68188;SDS011;66299;47.514;19.218;2023-04-03T04:18:27;13.23;;;7.28;;
68188;SDS011;66299;47.514;19.218;2023-04-03T04:20:59;12.50;;;6.90;;
68188;SDS011;66299;47.514;19.218;2023-04-03T04:23:27;13.55;;;6.95;;
68188;SDS011;66299;47.514;19.218;2023-04-03T04:25:56;13.57;;;7.00;;
68188;SDS011;66299;47.514;19.218;2023-04-03T04:28:26;13.52;;;6.93;;
68188;SDS011;66299;47.514;19.218;2023-04-03T04:30:57;11.95;;;6.55;;
68188;SDS011;66299;47.514;19.218;2023-04-03T04:33:25;12.32;;;7.03;;
68188;SDS011;66299;47.514;19.218;2023-04-03T04:35:53;12.35;;;6.38;;
68188;SDS011;66299;47.514;19.218;2023-04-03T04:38:23;13.00;;;7.20;;
68188;SDS011;66299;47.514;19.218;2023-04-03T04:40:53;12.57;;;6.80;;
68188;SDS011;66299;47.514;19.218;2023-04-03T04:43:22;13.73;;;7.20;;
68188;SDS011;66299;47.514;19.218;2023-04-03T04:45:59;13.30;;;7.30;;
68188;SDS011;66299;47.514;19.218;2023-04-03T04:48:31;12.48;;;7.07;;
68188;SDS011;66299;47.514;19.218;2023-04-03T04:51:00;13.43;;;7.40;;
68188;SDS011;66299;47.514;19.218;2023-04-03T04:53:33;13.15;;;7.43;;
68188;SDS011;66299;47.514;19.218;2023-04-03T04:56:02;14.23;;;7.45;;
68188;SDS011;66299;47.514;19.218;2023-04-03T04:58:31;14.52;;;7.60;;
68188;SDS011;66299;47.514;19.218;2023-04-03T05:01:01;15.60;;;7.60;;
68188;SDS011;66299;47.514;19.218;2023-04-03T05:03:31;13.65;;;7.80;;
68188;SDS011;66299;47.514;19.218;2023-04-03T05:06:00;13.57;;;7.50;;
68188;SDS011;66299;47.514;19.218;2023-04-03T05:08:30;14.20;;;8.30;;
68188;SDS011;66299;47.514;19.218;2023-04-03T05:11:00;13.60;;;7.35;;
68188;SDS011;66299;47.514;19.218;2023-04-03T05:13:30;13.70;;;7.93;;
68188;SDS011;66299;47.514;19.218;2023-04-03T05:15:58;13.70;;;7.95;;
68188;SDS011;66299;47.514;19.218;2023-04-03T05:18:26;15.00;;;7.68;;
68188;SDS011;66299;47.514;19.218;2023-04-03T05:20:54;16.25;;;7.43;;
68188;SDS011;66299;47.514;19.218;2023-04-03T05:23:27;15.23;;;7.80;;
68188;SDS011;66299;47.514;19.218;2023-04-03T05:25:55;13.90;;;8.10;;
68188;SDS011;66299;47.514;19.218;2023-04-03T05:28:30;14.18;;;7.88;;
68188;SDS011;66299;47.514;19.218;2023-04-03T05:31:00;14.35;;;7.40;;
68188;SDS011;66299;47.514;19.218;2023-04-03T05:33:28;13.10;;;6.88;;
68188;SDS011;66299;47.514;19.218;2023-04-03T05:36:01;13.45;;;6.90;;
68188;SDS011;66299;47.514;19.218;2023-04-03T05:38:31;16.15;;;7.40;;
68188;SDS011;66299;47.514;19.218;2023-04-03T05:41:02;14.15;;;7.50;;
68188;SDS011;66299;47.514;19.218;2023-04-03T05:43:33;14.20;;;7.15;;
68188;SDS011;66299;47.514;19.218;2023-04-03T05:46:04;12.27;;;6.63;;
68188;SDS011;66299;47.514;19.218;2023-04-03T05:48:41;12.25;;;6.55;;
68188;SDS011;66299;47.514;19.218;2023-04-03T05:51:13;12.43;;;6.25;;
68188;SDS011;66299;47.514;19.218;2023-04-03T05:53:46;12.70;;;6.70;;
68188;SDS011;66299;47.514;19.218;2023-04-03T05:56:19;12.38;;;6.60;;
68188;SDS011;66299;47.514;19.218;2023-04-03T05:58:50;12.20;;;6.15;;
68188;SDS011;66299;47.514;19.218;2023-04-03T06:01:20;11.35;;;5.72;;
68188;SDS011;66299;47.514;19.218;2023-04-03T06:03:50;11.88;;;6.15;;
68188;SDS011;66299;47.514;19.218;2023-04-03T06:06:20;11.43;;;6.05;;
68188;SDS011;66299;47.514;19.218;2023-04-03T06:08:52;12.77;;;5.88;;
68188;SDS011;66299;47.514;19.218;2023-04-03T06:11:26;12.23;;;6.00;;
68188;SDS011;66299;47.514;19.218;2023-04-03T06:13:57;12.25;;;6.38;;
68188;SDS011;66299;47.514;19.218;2023-04-03T06:16:27;12.38;;;6.35;;
68188;SDS011;66299;47.514;19.218;2023-04-03T06:18:57;11.50;;;5.68;;
68188;SDS011;66299;47.514;19.218;2023-04-03T06:21:28;11.70;;;5.78;;
68188;SDS011;66299;47.514;19.218;2023-04-03T06:26:29;11.75;;;6.03;;
68188;SDS011;66299;47.514;19.218;2023-04-03T06:28:58;11.77;;;5.65;;
68188;SDS011;66299;47.514;19.218;2023-04-03T06:31:27;11.88;;;5.15;;
68188;SDS011;66299;47.514;19.218;2023-04-03T06:33:56;12.27;;;5.70;;
68188;SDS011;66299;47.514;19.218;2023-04-03T06:36:24;10.30;;;4.85;;
68188;SDS011;66299;47.514;19.218;2023-04-03T06:38:53;11.40;;;4.80;;
68188;SDS011;66299;47.514;19.218;2023-04-03T06:41:22;10.25;;;4.40;;
68188;SDS011;66299;47.514;19.218;2023-04-03T06:43:52;9.50;;;4.22;;
68188;SDS011;66299;47.514;19.218;2023-04-03T06:46:25;13.30;;;4.40;;
68188;SDS011;66299;47.514;19.218;2023-04-03T06:48:55;10.45;;;4.30;;
68188;SDS011;66299;47.514;19.218;2023-04-03T06:51:25;10.65;;;4.40;;
68188;SDS011;66299;47.514;19.218;2023-04-03T06:53:56;9.23;;;4.20;;
68188;SDS011;66299;47.514;19.218;2023-04-03T06:56:26;9.52;;;4.07;;
68188;SDS011;66299;47.514;19.218;2023-04-03T06:58:55;10.40;;;4.55;;
68188;SDS011;66299;47.514;19.218;2023-04-03T07:01:26;10.13;;;4.10;;
68188;SDS011;66299;47.514;19.218;2023-04-03T07:03:56;9.73;;;4.03;;
68188;SDS011;66299;47.514;19.218;2023-04-03T07:06:25;9.35;;;4.18;;
68188;SDS011;66299;47.514;19.218;2023-04-03T07:08:56;10.00;;;3.90;;
68188;SDS011;66299;47.514;19.218;2023-04-03T07:11:25;9.15;;;4.10;;
68188;SDS011;66299;47.514;19.218;2023-04-03T07:13:54;10.63;;;4.20;;
68188;SDS011;66299;47.514;19.218;2023-04-03T07:16:23;9.95;;;4.47;;
68188;SDS011;66299;47.514;19.218;2023-04-03T07:18:54;9.85;;;4.60;;
68188;SDS011;66299;47.514;19.218;2023-04-03T07:21:23;9.40;;;4.00;;
68188;SDS011;66299;47.514;19.218;2023-04-03T07:23:51;10.80;;;4.40;;
68188;SDS011;66299;47.514;19.218;2023-04-03T07:26:20;10.05;;;4.22;;
68188;SDS011;66299;47.514;19.218;2023-04-03T07:28:54;8.98;;;3.90;;
68188;SDS011;66299;47.514;19.218;2023-04-03T07:31:23;9.15;;;3.70;;
68188;SDS011;66299;47.514;19.218;2023-04-03T07:33:53;11.05;;;3.90;;
68188;SDS011;66299;47.514;19.218;2023-04-03T07:36:22;8.57;;;3.92;;
68188;SDS011;66299;47.514;19.218;2023-04-03T07:38:52;9.10;;;3.97;;
68188;SDS011;66299;47.514;19.218;2023-04-03T07:41:20;12.02;;;4.07;;
68188;SDS011;66299;47.514;19.218;2023-04-03T07:43:49;8.63;;;4.00;;
68188;SDS011;66299;47.514;19.218;2023-04-03T07:46:19;10.02;;;4.25;;
68188;SDS011;66299;47.514;19.218;2023-04-03T07:48:48;8.50;;;3.60;;
68188;SDS011;66299;47.514;19.218;2023-04-03T07:51:18;9.30;;;3.88;;
68188;SDS011;66299;47.514;19.218;2023-04-03T07:53:47;9.77;;;3.92;;
68188;SDS011;66299;47.514;19.218;2023-04-03T07:56:16;10.95;;;3.88;;
68188;SDS011;66299;47.514;19.218;2023-04-03T07:58:45;9.45;;;4.10;;
68188;SDS011;66299;47.514;19.218;2023-04-03T08:01:13;9.70;;;4.20;;
68188;SDS011;66299;47.514;19.218;2023-04-03T08:03:42;9.18;;;3.88;;
68188;SDS011;66299;47.514;19.218;2023-04-03T08:06:11;8.60;;;3.88;;
68188;SDS011;66299;47.514;19.218;2023-04-03T08:08:46;9.20;;;3.90;;
68188;SDS011;66299;47.514;19.218;2023-04-03T08:11:15;11.10;;;4.10;;
68188;SDS011;66299;47.514;19.218;2023-04-03T08:13:45;12.55;;;4.70;;
68188;SDS011;66299;47.514;19.218;2023-04-03T08:16:16;9.25;;;4.00;;
68188;SDS011;66299;47.514;19.218;2023-04-03T08:18:47;9.43;;;3.80;;
68188;SDS011;66299;47.514;19.218;2023-04-03T08:21:16;9.80;;;3.90;;
68188;SDS011;66299;47.514;19.218;2023-04-03T08:23:47;8.88;;;3.78;;
68188;SDS011;66299;47.514;19.218;2023-04-03T08:26:20;8.70;;;3.72;;
68188;SDS011;66299;47.514;19.218;2023-04-03T08:28:49;8.30;;;3.47;;
68188;SDS011;66299;47.514;19.218;2023-04-03T08:31:18;8.80;;;3.80;;
68188;SDS011;66299;47.514;19.218;2023-04-03T08:33:49;8.73;;;3.85;;
68188;SDS011;66299;47.514;19.218;2023-04-03T08:36:19;8.70;;;3.33;;
68188;SDS011;66299;47.514;19.218;2023-04-03T08:38:52;8.13;;;3.58;;
68188;SDS011;66299;47.514;19.218;2023-04-03T08:41:29;8.30;;;3.35;;
68188;SDS011;66299;47.514;19.218;2023-04-03T08:44:02;8.55;;;3.30;;
68188;SDS011;66299;47.514;19.218;2023-04-03T08:46:43;8.07;;;3.50;;
68188;SDS011;66299;47.514;19.218;2023-04-03T08:49:28;9.13;;;3.70;;
68188;SDS011;66299;47.514;19.218;2023-04-03T08:52:00;8.52;;;3.15;;
68188;SDS011;66299;47.514;19.218;2023-04-03T08:54:34;8.25;;;3.30;;
68188;SDS011;66299;47.514;19.218;2023-04-03T08:57:12;8.43;;;3.50;;
68188;SDS011;66299;47.514;19.218;2023-04-03T08:59:42;8.40;;;3.38;;
68188;SDS011;66299;47.514;19.218;2023-04-03T09:02:19;8.63;;;3.50;;
68188;SDS011;66299;47.514;19.218;2023-04-03T09:04:53;9.00;;;3.67;;
68188;SDS011;66299;47.514;19.218;2023-04-03T09:07:30;8.30;;;3.45;;
68188;SDS011;66299;47.514;19.218;2023-04-03T09:10:08;8.27;;;3.42;;
68188;SDS011;66299;47.514;19.218;2023-04-03T09:12:42;8.10;;;3.40;;
68188;SDS011;66299;47.514;19.218;2023-04-03T09:15:19;8.40;;;3.47;;
68188;SDS011;66299;47.514;19.218;2023-04-03T09:18:04;8.43;;;3.40;;
68188;SDS011;66299;47.514;19.218;2023-04-03T09:20:43;8.20;;;3.45;;
68188;SDS011;66299;47.514;19.218;2023-04-03T09:23:17;8.60;;;3.47;;
68188;SDS011;66299;47.514;19.218;2023-04-03T09:25:53;8.10;;;3.40;;
68188;SDS011;66299;47.514;19.218;2023-04-03T09:28:27;8.40;;;3.35;;
68188;SDS011;66299;47.514;19.218;2023-04-03T09:31:13;9.60;;;3.63;;
68188;SDS011;66299;47.514;19.218;2023-04-03T09:33:47;9.18;;;4.00;;
68188;SDS011;66299;47.514;19.218;2023-04-03T09:39:13;8.52;;;3.38;;
68188;SDS011;66299;47.514;19.218;2023-04-03T09:41:54;9.32;;;3.40;;
68188;SDS011;66299;47.514;19.218;2023-04-03T09:44:26;9.63;;;3.40;;
68188;SDS011;66299;47.514;19.218;2023-04-03T09:46:59;8.32;;;3.65;;
68188;SDS011;66299;47.514;19.218;2023-04-03T09:49:46;8.93;;;3.70;;
68188;SDS011;66299;47.514;19.218;2023-04-03T09:52:18;9.13;;;3.67;;
68188;SDS011;66299;47.514;19.218;2023-04-03T09:54:49;8.32;;;3.40;;
68188;SDS011;66299;47.514;19.218;2023-04-03T09:57:19;9.25;;;3.60;;
68188;SDS011;66299;47.514;19.218;2023-04-03T09:59:47;8.68;;;3.53;;
68188;SDS011;66299;47.514;19.218;2023-04-03T10:02:34;8.10;;;3.45;;
68188;SDS011;66299;47.514;19.218;2023-04-03T10:05:24;8.13;;;3.53;;
68188;SDS011;66299;47.514;19.218;2023-04-03T10:08:09;7.68;;;3.15;;
68188;SDS011;66299;47.514;19.218;2023-04-03T10:10:47;8.55;;;2.70;;
68188;SDS011;66299;47.514;19.218;2023-04-03T10:13:19;8.43;;;3.08;;
68188;SDS011;66299;47.514;19.218;2023-04-03T10:15:50;6.97;;;2.60;;
68188;SDS011;66299;47.514;19.218;2023-04-03T10:18:32;8.05;;;3.03;;
68188;SDS011;66299;47.514;19.218;2023-04-03T10:21:10;7.63;;;3.05;;
68188;SDS011;66299;47.514;19.218;2023-04-03T10:23:54;7.50;;;2.80;;
68188;SDS011;66299;47.514;19.218;2023-04-03T10:26:33;8.15;;;3.00;;
68188;SDS011;66299;47.514;19.218;2023-04-03T10:29:09;9.48;;;3.47;;
68188;SDS011;66299;47.514;19.218;2023-04-03T10:31:50;8.73;;;3.60;;
68188;SDS011;66299;47.514;19.218;2023-04-03T10:34:24;9.63;;;3.97;;
68188;SDS011;66299;47.514;19.218;2023-04-03T10:36:59;8.88;;;3.15;;
68188;SDS011;66299;47.514;19.218;2023-04-03T10:39:36;9.43;;;3.60;;
68188;SDS011;66299;47.514;19.218;2023-04-03T10:42:13;8.10;;;3.08;;
68188;SDS011;66299;47.514;19.218;2023-04-03T10:44:52;7.97;;;3.08;;
68188;SDS011;66299;47.514;19.218;2023-04-03T10:47:31;9.25;;;3.30;;
68188;SDS011;66299;47.514;19.218;2023-04-03T10:50:10;8.48;;;3.00;;
68188;SDS011;66299;47.514;19.218;2023-04-03T10:52:55;8.05;;;2.90;;
68188;SDS011;66299;47.514;19.218;2023-04-03T10:55:31;6.88;;;2.58;;
68188;SDS011;66299;47.514;19.218;2023-04-03T10:58:04;8.52;;;2.90;;
68188;SDS011;66299;47.514;19.218;2023-04-03T11:00:37;7.78;;;2.83;;
68188;SDS011;66299;47.514;19.218;2023-04-03T11:03:11;6.85;;;2.55;;
68188;SDS011;66299;47.514;19.218;2023-04-03T11:05:44;8.02;;;2.83;;
68188;SDS011;66299;47.514;19.218;2023-04-03T11:08:19;8.45;;;3.00;;
68188;SDS011;66299;47.514;19.218;2023-04-03T11:10:55;8.07;;;2.95;;
68188;SDS011;66299;47.514;19.218;2023-04-03T11:13:28;9.05;;;3.10;;
68188;SDS011;66299;47.514;19.218;2023-04-03T11:16:02;8.68;;;3.15;;
68188;SDS011;66299;47.514;19.218;2023-04-03T11:18:33;7.43;;;2.75;;
68188;SDS011;66299;47.514;19.218;2023-04-03T11:21:07;7.72;;;2.80;;
68188;SDS011;66299;47.514;19.218;2023-04-03T11:23:44;7.50;;;2.55;;
68188;SDS011;66299;47.514;19.218;2023-04-03T11:26:16;7.95;;;3.00;;
68188;SDS011;66299;47.514;19.218;2023-04-03T11:28:52;8.07;;;2.90;;
68188;SDS011;66299;47.514;19.218;2023-04-03T11:31:38;8.02;;;2.95;;
68188;SDS011;66299;47.514;19.218;2023-04-03T11:34:25;10.20;;;3.05;;
68188;SDS011;66299;47.514;19.218;2023-04-03T11:37:05;11.13;;;3.85;;
68188;SDS011;66299;47.514;19.218;2023-04-03T11:39:48;16.75;;;5.45;;
68188;SDS011;66299;47.514;19.218;2023-04-03T11:42:26;10.20;;;3.20;;
68188;SDS011;66299;47.514;19.218;2023-04-03T11:45:17;8.23;;;3.38;;
68188;SDS011;66299;47.514;19.218;2023-04-03T11:47:58;9.27;;;3.40;;
68188;SDS011;66299;47.514;19.218;2023-04-03T11:50:47;8.70;;;2.90;;
68188;SDS011;66299;47.514;19.218;2023-04-03T11:53:31;8.85;;;3.25;;
68188;SDS011;66299;47.514;19.218;2023-04-03T12:01:50;12.40;;;3.80;;
68188;SDS011;66299;47.514;19.218;2023-04-03T12:04:21;7.60;;;2.88;;
68188;SDS011;66299;47.514;19.218;2023-04-03T12:06:58;9.18;;;3.20;;
68188;SDS011;66299;47.514;19.218;2023-04-03T12:12:31;7.40;;;2.70;;
68188;SDS011;66299;47.514;19.218;2023-04-03T12:15:19;8.15;;;2.88;;
68188;SDS011;66299;47.514;19.218;2023-04-03T12:17:50;7.40;;;2.80;;
68188;SDS011;66299;47.514;19.218;2023-04-03T12:23:27;7.85;;;2.80;;
68188;SDS011;66299;47.514;19.218;2023-04-03T12:26:01;9.68;;;2.90;;
68188;SDS011;66299;47.514;19.218;2023-04-03T12:28:48;10.15;;;3.28;;
68188;SDS011;66299;47.514;19.218;2023-04-03T12:31:19;7.90;;;2.70;;
68188;SDS011;66299;47.514;19.218;2023-04-03T12:33:57;7.53;;;2.70;;
68188;SDS011;66299;47.514;19.218;2023-04-03T12:36:39;9.20;;;2.35;;
68188;SDS011;66299;47.514;19.218;2023-04-03T12:42:25;7.57;;;2.70;;
68188;SDS011;66299;47.514;19.218;2023-04-03T12:45:10;6.75;;;2.40;;
68188;SDS011;66299;47.514;19.218;2023-04-03T12:47:45;7.18;;;2.60;;
68188;SDS011;66299;47.514;19.218;2023-04-03T12:50:18;7.90;;;2.70;;
68188;SDS011;66299;47.514;19.218;2023-04-03T12:52:56;7.35;;;2.63;;
68188;SDS011;66299;47.514;19.218;2023-04-03T12:55:28;7.80;;;2.80;;
68188;SDS011;66299;47.514;19.218;2023-04-03T12:57:56;7.20;;;2.30;;
68188;SDS011;66299;47.514;19.218;2023-04-03T13:00:27;9.02;;;2.60;;
68188;SDS011;66299;47.514;19.218;2023-04-03T13:02:59;7.22;;;2.75;;
68188;SDS011;66299;47.514;19.218;2023-04-03T13:05:30;8.30;;;2.97;;
68188;SDS011;66299;47.514;19.218;2023-04-03T13:08:05;6.95;;;2.65;;
68188;SDS011;66299;47.514;19.218;2023-04-03T13:10:43;7.13;;;2.45;;
68188;SDS011;66299;47.514;19.218;2023-04-03T13:13:18;7.15;;;2.58;;
68188;SDS011;66299;47.514;19.218;2023-04-03T13:15:47;7.07;;;2.53;;
68188;SDS011;66299;47.514;19.218;2023-04-03T13:18:23;7.18;;;2.50;;
68188;SDS011;66299;47.514;19.218;2023-04-03T13:20:56;7.60;;;2.50;;
68188;SDS011;66299;47.514;19.218;2023-04-03T13:23:29;7.35;;;2.30;;
68188;SDS011;66299;47.514;19.218;2023-04-03T13:25:59;7.03;;;2.50;;
68188;SDS011;66299;47.514;19.218;2023-04-03T13:28:31;6.90;;;2.58;;
68188;SDS011;66299;47.514;19.218;2023-04-03T13:31:04;6.25;;;2.40;;
68188;SDS011;66299;47.514;19.218;2023-04-03T13:33:38;7.10;;;2.45;;
68188;SDS011;66299;47.514;19.218;2023-04-03T13:36:13;8.10;;;3.00;;
68188;SDS011;66299;47.514;19.218;2023-04-03T13:38:47;6.78;;;2.35;;
68188;SDS011;66299;47.514;19.218;2023-04-03T13:41:29;6.47;;;2.20;;
68188;SDS011;66299;47.514;19.218;2023-04-03T13:46:43;7.57;;;2.25;;
68188;SDS011;66299;47.514;19.218;2023-04-03T13:49:19;7.60;;;2.40;;
68188;SDS011;66299;47.514;19.218;2023-04-03T13:51:48;6.82;;;2.47;;
68188;SDS011;66299;47.514;19.218;2023-04-03T13:54:34;7.15;;;2.60;;
68188;SDS011;66299;47.514;19.218;2023-04-03T13:57:14;9.05;;;2.80;;
68188;SDS011;66299;47.514;19.218;2023-04-03T13:59:45;8.23;;;3.28;;
68188;SDS011;66299;47.514;19.218;2023-04-03T14:02:17;7.28;;;2.70;;
68188;SDS011;66299;47.514;19.218;2023-04-03T14:04:49;7.07;;;2.55;;
68188;SDS011;66299;47.514;19.218;2023-04-03T14:07:24;7.95;;;2.60;;
68188;SDS011;66299;47.514;19.218;2023-04-03T14:09:55;6.40;;;2.40;;
68188;SDS011;66299;47.514;19.218;2023-04-03T14:12:25;6.30;;;2.20;;
68188;SDS011;66299;47.514;19.218;2023-04-03T14:14:59;6.13;;;2.20;;
68188;SDS011;66299;47.514;19.218;2023-04-03T14:17:33;6.53;;;2.20;;
68188;SDS011;66299;47.514;19.218;2023-04-03T14:20:03;6.90;;;2.03;;
68188;SDS011;66299;47.514;19.218;2023-04-03T14:22:36;6.15;;;2.20;;
68188;SDS011;66299;47.514;19.218;2023-04-03T14:25:09;6.35;;;2.00;;
68188;SDS011;66299;47.514;19.218;2023-04-03T14:27:40;8.18;;;2.22;;
68188;SDS011;66299;47.514;19.218;2023-04-03T14:30:12;6.18;;;2.20;;
68188;SDS011;66299;47.514;19.218;2023-04-03T14:32:44;6.22;;;2.17;;
68188;SDS011;66299;47.514;19.218;2023-04-03T14:35:13;8.00;;;2.00;;
68188;SDS011;66299;47.514;19.218;2023-04-03T14:37:43;6.63;;;2.20;;
68188;SDS011;66299;47.514;19.218;2023-04-03T14:40:16;6.60;;;2.15;;
68188;SDS011;66299;47.514;19.218;2023-04-03T14:42:47;6.32;;;2.10;;
68188;SDS011;66299;47.514;19.218;2023-04-03T14:45:16;6.25;;;2.30;;
68188;SDS011;66299;47.514;19.218;2023-04-03T14:47:47;6.63;;;2.30;;
68188;SDS011;66299;47.514;19.218;2023-04-03T14:50:19;7.13;;;2.30;;
68188;SDS011;66299;47.514;19.218;2023-04-03T14:52:52;6.78;;;2.00;;
68188;SDS011;66299;47.514;19.218;2023-04-03T14:55:25;6.32;;;2.20;;
68188;SDS011;66299;47.514;19.218;2023-04-03T15:00:23;6.72;;;2.38;;
68188;SDS011;66299;47.514;19.218;2023-04-03T15:02:52;10.27;;;3.35;;
68188;SDS011;66299;47.514;19.218;2023-04-03T15:05:22;11.15;;;2.53;;
68188;SDS011;66299;47.514;19.218;2023-04-03T15:07:52;5.72;;;2.00;;
68188;SDS011;66299;47.514;19.218;2023-04-03T15:10:24;6.15;;;2.05;;
68188;SDS011;66299;47.514;19.218;2023-04-03T15:12:54;7.88;;;2.17;;
68188;SDS011;66299;47.514;19.218;2023-04-03T15:15:23;6.05;;;2.20;;
68188;SDS011;66299;47.514;19.218;2023-04-03T15:17:56;8.30;;;2.30;;
68188;SDS011;66299;47.514;19.218;2023-04-03T15:20:26;5.60;;;1.98;;
68188;SDS011;66299;47.514;19.218;2023-04-03T15:22:57;6.45;;;2.20;;
68188;SDS011;66299;47.514;19.218;2023-04-03T15:25:29;8.50;;;3.10;;
68188;SDS011;66299;47.514;19.218;2023-04-03T15:28:03;10.32;;;3.13;;
68188;SDS011;66299;47.514;19.218;2023-04-03T15:30:32;7.60;;;2.35;;
68188;SDS011;66299;47.514;19.218;2023-04-03T15:33:04;9.20;;;2.67;;